CA-0161 weather

CLOSED King Ranch Airport
High River, Alberta, Canada

Public forecast

Using degrees Celsius for public forecast. Weather courtesy of forecast.io.

METAR (pilot weather report)

Closest report is Calgary International Airport, 30.9 nm (57.3 km) N. Retrieved 2019/06/17 21:00 UTC (60 minutes ago):

CYYC 172100Z 17014G22KT 140V210 15SM SCT066CB 24/08 A2999 RMK CB3 LN CB'S S-NW SLP155 DENSITY ALT 5400FT

TAF (pilot weather forecast)

Closest forecast is Calgary International Airport, 30.9 nm (57.3 km) N. Retrieved 2019/06/17 21:40 UTC (20 minutes ago):

TAF CYYC 172038Z 1721/1818 16012G22KT P6SM FEW060 FM172200 18012G22KT P6SM SCT070 SCT150 TEMPO 1722/1802 P6SM -SHRA BKN070 PROB40 1722/1802 VRB20G30KT 4SM TSRA BKN060CB FM180200 18010KT P6SM SCT120 BKN220 FM180900 24005KT P6SM BKN120 FM181500 34010KT P6SM VCSH BKN070 BKN120 RMK NXT FCST BY 180000Z